Time;durP1;ratioP1;P1;durP2;ratioP2;P2;SDS_P1;SDS_P2;PMS_P1;PMS_P2;Temp;Humidity;BMP_temperature;BMP_pressure;BME280_temperature;BME280_humidity;BME280_pressure;Samples;Min_cycle;Max_cycle;Signal;HPM_P1;HPM_P2
2022/01/18 00:00:47;;;;;;;14.47;3.30;;;;;;;6.11;97.27;103177.94;5117737;28;20186;-70
2022/01/18 00:03:14;;;;;;;13.17;4.07;;;;;;;6.10;97.35;103175.34;5117371;28;20189;-70
2022/01/18 00:05:44;;;;;;;17.23;3.53;;;;;;;6.09;97.17;103184.00;5117313;28;20192;-70
2022/01/18 00:08:11;;;;;;;21.43;4.80;;;;;;;6.04;97.41;103176.97;5117543;28;20209;-70
2022/01/18 00:10:38;;;;;;;20.20;3.47;;;;;;;6.05;97.57;103183.03;5117247;28;20188;-70
2022/01/18 00:18:08;;;;;;;23.83;4.23;;;;;;;6.05;97.45;103201.25;5117377;28;20209;-71
2022/01/18 00:23:09;;;;;;;12.33;4.47;;;;;;;6.01;97.45;103187.34;5117363;28;20169;-70
2022/01/18 00:25:39;;;;;;;9.40;4.10;;;;;;;5.97;97.14;103193.31;5117288;28;20635;-70
2022/01/18 00:28:07;;;;;;;16.13;3.30;;;;;;;5.94;97.30;103195.88;5116908;28;20205;-71
2022/01/18 00:31:05;;;;;;;20.63;4.17;;;;;;;5.90;97.23;103198.34;5099404;28;20184;-70
2022/01/18 00:33:41;;;;;;;8.60;3.37;;;;;;;5.93;97.24;103203.63;5116796;28;20189;-70
2022/01/18 00:36:21;;;;;;;23.50;4.50;;;;;;;5.86;97.28;103217.31;5116781;28;20167;-71
2022/01/18 00:38:48;;;;;;;16.03;3.10;;;;;;;5.82;97.46;103216.41;5116668;28;20240;-70
2022/01/18 00:41:18;;;;;;;7.87;3.33;;;;;;;5.85;97.77;103220.78;5117254;28;20178;-70
2022/01/18 00:43:46;;;;;;;15.37;5.13;;;;;;;5.93;97.50;103219.22;5116978;28;20207;-71
2022/01/18 00:46:13;;;;;;;5.20;2.77;;;;;;;5.92;97.68;103217.47;5116728;28;20181;-71
2022/01/18 00:48:41;;;;;;;8.43;3.70;;;;;;;5.96;97.61;103216.69;5117090;28;20181;-71
2022/01/18 00:51:12;;;;;;;11.60;3.27;;;;;;;5.95;97.59;103217.56;5116464;28;20238;-71
2022/01/18 00:53:41;;;;;;;13.73;3.53;;;;;;;5.98;97.69;103228.00;5116696;28;20218;-71
2022/01/18 00:56:26;;;;;;;19.57;3.27;;;;;;;5.98;97.62;103225.38;5116795;28;20185;-71
2022/01/18 00:58:54;;;;;;;13.70;3.90;;;;;;;6.01;97.38;103236.75;5116575;28;20246;-70
2022/01/18 01:01:24;;;;;;;34.23;4.23;;;;;;;6.01;97.30;103234.13;5116554;28;20239;-70
2022/01/18 01:03:53;;;;;;;19.37;3.93;;;;;;;6.00;97.69;103237.59;5116302;28;20181;-71
2022/01/18 01:06:20;;;;;;;12.60;4.00;;;;;;;6.06;97.29;103236.81;5116353;28;20573;-71
2022/01/18 01:08:46;;;;;;;8.63;3.20;;;;;;;6.09;97.26;103241.22;5116496;28;20539;-71
2022/01/18 01:11:13;;;;;;;18.90;3.47;;;;;;;6.03;97.08;103239.38;5116093;28;20192;-70
2022/01/18 01:13:44;;;;;;;20.67;4.13;;;;;;;6.02;97.34;103232.41;5116290;28;20185;-70
2022/01/18 01:16:38;;;;;;;5.53;3.40;;;;;;;6.08;97.16;103224.72;5116232;28;20623;-71
2022/01/18 01:45:35;;;;;;;10.30;3.07;;;;;;;6.06;97.33;103236.81;5115776;28;20184;-70
2022/01/18 01:48:03;;;;;;;8.67;3.30;;;;;;;6.08;97.43;103242.94;5115381;28;20246;-71
2022/01/18 01:50:43;;;;;;;15.97;3.53;;;;;;;6.02;97.49;103246.28;5115324;28;20218;-71
2022/01/18 01:53:10;;;;;;;10.30;2.60;;;;;;;6.07;97.49;103254.16;5115597;28;20222;-71
2022/01/18 01:55:38;;;;;;;7.83;3.17;;;;;;;6.06;97.77;103252.41;5116006;28;20207;-71
2022/01/18 01:58:05;;;;;;;11.73;3.60;;;;;;;6.07;97.34;103251.56;5115125;28;20266;-71
2022/01/18 02:00:32;;;;;;;16.73;3.63;;;;;;;5.99;97.70;103246.22;5096848;28;20209;-71
2022/01/18 02:02:59;;;;;;;29.80;4.27;;;;;;;6.06;97.45;103242.88;5115095;28;20185;-70
2022/01/18 02:05:26;;;;;;;6.97;3.60;;;;;;;5.97;97.92;103236.66;5115038;28;20224;-70
2022/01/18 02:07:53;;;;;;;8.53;3.23;;;;;;;5.93;97.88;103234.81;5114915;28;20204;-71
2022/01/18 02:10:19;;;;;;;15.30;3.50;;;;;;;5.95;97.98;103235.75;5115499;28;20179;-71
2022/01/18 02:12:45;;;;;;;15.17;3.10;;;;;;;5.95;98.03;103238.34;5115477;28;20231;-71
2022/01/18 02:15:17;;;;;;;6.53;3.57;;;;;;;5.98;98.12;103228.88;5115141;28;20181;-71
2022/01/18 02:23:21;;;;;;;14.83;4.33;;;;;;;5.91;98.25;103231.31;5115008;28;20177;-71
2022/01/18 02:25:48;;;;;;;14.03;3.70;;;;;;;5.99;98.10;103227.13;5114650;28;20596;-71
2022/01/18 02:28:16;;;;;;;16.63;3.93;;;;;;;6.01;97.65;103228.06;5114776;28;20610;-71
2022/01/18 02:30:44;;;;;;;16.03;3.63;;;;;;;5.97;97.59;103231.44;5115115;28;20239;-70
2022/01/18 02:33:12;;;;;;;10.37;4.03;;;;;;;5.95;97.74;103227.94;5114535;28;20242;-70
2022/01/18 02:35:39;;;;;;;8.93;4.40;;;;;;;5.88;97.91;103231.25;5096196;28;20195;-70
2022/01/18 02:38:06;;;;;;;15.13;4.20;;;;;;;5.90;98.02;103229.53;5114941;28;20209;-70
2022/01/18 02:40:33;;;;;;;32.40;3.97;;;;;;;5.88;98.12;103226.06;5114263;28;20258;-70
2022/01/18 02:43:46;;;;;;;10.43;3.93;;;;;;;5.88;97.95;103229.53;5114844;28;20639;-70
2022/01/18 02:45:52;;;;;;;8.57;3.10;;;;;;;5.89;98.05;103227.81;5114264;28;20220;-70
2022/01/18 02:48:19;;;;;;;16.67;3.80;;;;;;;5.85;98.44;103229.44;5114199;28;20623;-71
2022/01/18 02:50:46;;;;;;;18.30;4.10;;;;;;;5.88;98.37;103229.53;5114775;28;20234;-70
2022/01/18 02:53:13;;;;;;;10.53;2.43;;;;;;;5.86;98.47;103235.53;5114141;28;20197;-70
2022/01/18 02:55:40;;;;;;;10.53;2.80;;;;;;;5.85;98.50;103228.56;5114136;28;20185;-70
2022/01/18 02:58:10;;;;;;;8.60;3.37;;;;;;;5.93;98.39;103229.63;5114044;28;20281;-70
2022/01/18 03:03:11;;;;;;;10.70;3.00;;;;;;;5.98;98.14;103222.78;5114510;28;20663;-70
2022/01/18 03:03:33;;;;;;;11.03;2.93;;;;;;;6.00;98.10;103221.09;5114277;28;20197;-70
2022/01/18 03:06:01;;;;;;;7.83;3.80;;;;;;;5.96;97.52;103227.09;5114191;28;20234;-71
2022/01/18 03:08:28;;;;;;;18.27;2.77;;;;;;;5.95;97.55;103223.63;5114265;28;20190;-71
2022/01/18 03:10:56;;;;;;;15.73;3.63;;;;;;;5.96;97.21;103227.09;5114439;28;20232;-70
2022/01/18 03:13:23;;;;;;;9.47;2.70;;;;;;;5.80;97.62;103229.38;5114414;28;20238;-71
2022/01/18 03:15:50;;;;;;;9.93;2.83;;;;;;;5.84;97.66;103235.50;5114131;28;20186;-70
2022/01/18 03:18:16;;;;;;;8.13;2.43;;;;;;;5.89;97.60;103243.41;5113732;28;20282;-71
2022/01/18 03:20:43;;;;;;;8.70;2.93;;;;;;;5.76;97.76;103243.16;5113948;28;20574;-71
2022/01/18 03:23:15;;;;;;;16.70;3.27;;;;;;;5.77;97.67;103239.72;5113765;28;20232;-71
2022/01/18 03:25:56;;;;;;;21.07;3.77;;;;;;;5.90;97.61;103245.16;5114329;28;20225;-71
2022/01/18 03:28:24;;;;;;;10.27;3.47;;;;;;;5.85;97.34;103241.56;5113655;28;20211;-71
2022/01/18 03:30:54;;;;;;;7.50;2.77;;;;;;;5.88;97.61;103241.66;5096572;28;20234;-70
2022/01/18 03:33:23;;;;;;;7.87;2.67;;;;;;;5.88;97.43;103244.25;5118278;28;20617;-70
2022/01/18 03:35:53;;;;;;;11.23;2.50;;;;;;;5.73;97.61;103244.84;5118497;28;20246;-70
2022/01/18 03:38:21;;;;;;;10.90;2.73;;;;;;;5.86;97.47;103243.31;5118084;28;20255;-70
2022/01/18 03:40:48;;;;;;;11.13;2.53;;;;;;;5.76;97.46;103234.47;5099682;28;20205;-70
2022/01/18 03:43:15;;;;;;;12.17;3.10;;;;;;;5.83;97.39;103241.56;5118069;28;20215;-70
2022/01/18 03:45:44;;;;;;;6.53;2.73;;;;;;;5.79;97.50;103240.63;5117769;28;20194;-70
2022/01/18 03:48:38;;;;;;;7.23;2.30;;;;;;;5.75;97.33;103257.00;5117684;28;20686;-70
2022/01/18 03:51:08;;;;;;;15.93;2.10;;;;;;;5.80;97.27;103250.19;5118274;28;20173;-70
2022/01/18 03:53:34;;;;;;;5.73;2.80;;;;;;;5.77;97.24;103254.44;5117630;28;20189;-70
2022/01/18 03:56:02;;;;;;;14.77;3.17;;;;;;;5.74;97.20;103254.38;5117731;28;20195;-71
2022/01/18 03:58:28;;;;;;;10.50;2.13;;;;;;;5.78;97.31;103257.06;5117505;28;20266;-70
2022/01/18 04:00:56;;;;;;;8.33;2.50;;;;;;;5.77;97.36;103257.91;5117745;28;20199;-70
2022/01/18 04:03:22;;;;;;;17.07;3.10;;;;;;;5.71;97.65;103254.31;5117438;28;20210;-70
2022/01/18 04:05:52;;;;;;;12.33;2.27;;;;;;;5.71;97.75;103252.56;5117684;28;20189;-70
2022/01/18 04:08:22;;;;;;;11.63;2.97;;;;;;;5.68;97.86;103256.84;5117818;28;20612;-70
2022/01/18 04:10:49;;;;;;;5.80;2.30;;;;;;;5.70;98.12;103252.56;5118126;28;20608;-70
2022/01/18 04:13:16;;;;;;;8.97;2.27;;;;;;;5.61;98.29;103265.38;5117200;28;20192;-70
2022/01/18 04:15:43;;;;;;;8.73;1.90;;;;;;;5.67;98.41;103263.78;5117746;28;20700;-70
2022/01/18 04:18:25;;;;;;;5.07;2.10;;;;;;;5.71;98.21;103262.97;5117874;28;20594;-71
2022/01/18 04:28:57;;;;;;;6.10;2.27;;;;;;;5.55;99.14;103265.25;5116914;28;20264;-70
2022/01/18 04:31:24;;;;;;;10.23;3.10;;;;;;;5.60;99.25;103269.69;5116954;28;20223;-70
2022/01/18 04:33:52;;;;;;;3.90;2.07;;;;;;;5.60;99.07;103266.22;5116815;28;20537;-70
2022/01/18 04:36:18;;;;;;;2.30;2.10;;;;;;;5.58;99.18;103261.00;5117015;28;20209;-70
2022/01/18 04:38:45;;;;;;;8.00;2.67;;;;;;;5.62;99.03;103255.00;5117267;28;20647;-70
2022/01/18 04:41:16;;;;;;;10.53;2.47;;;;;;;5.61;98.88;103253.25;5116864;28;20201;-70
2022/01/18 04:44:10;;;;;;;3.63;2.03;;;;;;;5.56;99.50;103251.41;5115790;28;20234;-70
2022/01/18 04:49:21;;;;;;;10.43;2.77;;;;;;;5.58;99.57;103255.81;5117392;28;20230;-70
2022/01/18 04:51:48;;;;;;;8.70;2.70;;;;;;;5.57;99.62;103256.63;5116740;28;20600;-70
2022/01/18 04:54:16;;;;;;;4.20;2.23;;;;;;;5.55;99.57;103257.44;5116997;28;20230;-70
2022/01/18 04:59:11;;;;;;;4.20;3.20;;;;;;;5.51;99.92;103262.59;5116302;28;20250;-70
2022/01/18 05:01:40;;;;;;;10.87;3.70;;;;;;;5.49;100.00;103266.00;5116261;28;20613;-70
2022/01/18 05:04:07;;;;;;;12.40;3.47;;;;;;;5.57;100.00;103267.03;5116210;28;20250;-70
2022/01/18 05:06:34;;;;;;;14.23;3.47;;;;;;;5.61;100.00;103270.56;5116426;28;20242;-70
2022/01/18 05:09:07;;;;;;;6.90;2.97;;;;;;;5.58;100.00;103278.31;5116138;28;20272;-70
2022/01/18 05:11:42;;;;;;;18.00;3.47;;;;;;;5.57;100.00;103282.59;5116159;28;20169;-70
2022/01/18 05:16:52;;;;;;;10.20;3.27;;;;;;;5.59;100.00;103288.75;5116429;28;20235;-70
2022/01/18 05:24:33;;;;;;;8.33;4.00;;;;;;;5.73;99.60;103292.50;5116042;28;20201;-70
2022/01/18 05:27:01;;;;;;;6.27;2.77;;;;;;;5.72;99.70;103295.06;5115975;28;20743;-70
2022/01/18 05:29:28;;;;;;;12.10;3.37;;;;;;;5.70;100.00;103288.94;5115830;28;20613;-70
2022/01/18 05:31:55;;;;;;;9.00;2.73;;;;;;;5.74;99.74;103286.44;5115718;28;20183;-70
2022/01/18 05:34:22;;;;;;;12.27;3.87;;;;;;;5.72;99.77;103285.56;5115650;28;20216;-70
2022/01/18 05:36:49;;;;;;;18.37;3.70;;;;;;;5.75;99.53;103276.94;5115539;28;20209;-70
2022/01/18 05:39:15;;;;;;;19.47;3.87;;;;;;;5.72;99.31;103282.06;5115729;28;20185;-70
2022/01/18 05:41:43;;;;;;;17.67;4.17;;;;;;;5.72;99.52;103282.94;5115443;28;20267;-70
2022/01/18 05:44:09;;;;;;;11.37;4.40;;;;;;;5.72;99.25;103289.88;5115348;28;20193;-70
2022/01/18 05:46:36;;;;;;;17.93;4.57;;;;;;;5.65;99.47;103283.66;5115909;28;20209;-71
2022/01/18 05:49:04;;;;;;;17.17;5.43;;;;;;;5.66;99.53;103282.81;5115905;28;20662;-70
2022/01/18 05:51:32;;;;;;;16.77;4.97;;;;;;;5.66;99.64;103281.94;5115806;28;20230;-70
2022/01/18 05:53:58;;;;;;;19.73;5.17;;;;;;;5.64;99.55;103279.28;5115580;28;20590;-70
2022/01/18 05:56:28;;;;;;;17.87;5.20;;;;;;;5.69;99.49;103276.81;5115670;28;20300;-71
2022/01/18 05:58:58;;;;;;;14.23;5.67;;;;;;;5.66;99.46;103282.81;5115167;28;20234;-70
2022/01/18 06:01:27;;;;;;;16.23;6.20;;;;;;;5.61;99.74;103280.97;5115901;28;20213;-70
2022/01/18 06:09:09;;;;;;;23.33;6.57;;;;;;;5.51;100.00;103275.59;5115270;28;20234;-70
2022/01/18 06:11:35;;;;;;;17.47;6.47;;;;;;;5.50;100.00;103281.63;5114924;28;20588;-70
2022/01/18 06:14:02;;;;;;;15.77;6.80;;;;;;;5.47;100.00;103289.34;5097175;28;20575;-71
2022/01/18 06:16:29;;;;;;;10.07;7.03;;;;;;;5.46;100.00;103282.41;5114750;28;20252;-70
2022/01/18 06:18:55;;;;;;;20.13;6.97;;;;;;;5.48;100.00;103288.50;5115344;28;20181;-70
2022/01/18 06:21:22;;;;;;;17.03;5.57;;;;;;;5.43;100.00;103287.53;5114833;28;20257;-70
2022/01/18 06:23:48;;;;;;;16.03;6.60;;;;;;;5.45;100.00;103290.16;5114698;28;20199;-70
2022/01/18 06:26:16;;;;;;;27.07;7.30;;;;;;;5.47;100.00;103293.66;5114904;28;20580;-70
2022/01/18 06:28:43;;;;;;;15.53;6.87;;;;;;;5.52;100.00;103295.53;5115390;28;20178;-70
2022/01/18 06:31:15;;;;;;;25.47;6.33;;;;;;;5.44;100.00;103288.41;5114872;28;20540;-70
2022/01/18 06:33:41;;;;;;;14.20;7.17;;;;;;;5.44;100.00;103291.03;5114437;28;20181;-70
2022/01/18 06:36:09;;;;;;;11.67;7.27;;;;;;;5.45;100.00;103301.44;5114590;28;20193;-71
2022/01/18 06:38:36;;;;;;;17.13;6.37;;;;;;;5.48;100.00;103298.00;5114637;28;20223;-70
2022/01/18 06:41:04;;;;;;;20.50;7.30;;;;;;;5.48;100.00;103298.00;5114894;28;20247;-70
2022/01/18 06:43:30;;;;;;;13.30;7.73;;;;;;;5.47;100.00;103301.47;5114842;28;20203;-70
2022/01/18 06:45:57;;;;;;;14.27;7.30;;;;;;;5.44;100.00;103304.00;5114764;28;20185;-70
2022/01/18 06:48:23;;;;;;;23.17;7.80;;;;;;;5.50;100.00;103304.13;5114496;28;20658;-70
2022/01/18 06:50:50;;;;;;;26.23;7.33;;;;;;;5.50;100.00;103307.63;5114187;28;20226;-70
2022/01/18 06:53:16;;;;;;;28.77;9.87;;;;;;;5.52;100.00;103305.91;5114485;28;20189;-70
2022/01/18 06:55:43;;;;;;;27.77;8.80;;;;;;;5.46;100.00;103307.50;5114062;28;20720;-70
2022/01/18 06:58:09;;;;;;;30.13;8.70;;;;;;;5.44;100.00;103306.59;5114068;28;20321;-70
2022/01/18 07:00:36;;;;;;;18.30;7.63;;;;;;;5.49;100.00;103310.16;5113973;28;20197;-70
2022/01/18 07:03:03;;;;;;;30.50;8.60;;;;;;;5.40;100.00;103310.84;5113941;28;20189;-70
2022/01/18 07:05:32;;;;;;;16.47;7.47;;;;;;;5.32;100.00;103302.00;5113503;28;20181;-70
2022/01/18 07:07:58;;;;;;;23.80;7.50;;;;;;;5.33;100.00;103300.28;5113844;28;20209;-70
2022/01/18 07:10:25;;;;;;;21.33;8.03;;;;;;;5.30;100.00;103298.50;5114396;28;20179;-70
2022/01/18 07:12:55;;;;;;;26.13;8.10;;;;;;;5.20;100.00;103297.41;5095575;28;20231;-70
2022/01/18 07:15:22;;;;;;;31.17;7.97;;;;;;;5.20;100.00;103305.19;5113783;28;20230;-70
2022/01/18 07:17:48;;;;;;;14.77;7.87;;;;;;;5.22;100.00;103302.66;5113708;28;20620;-71
2022/01/18 07:20:15;;;;;;;25.73;8.00;;;;;;;5.24;100.00;103307.03;5113590;28;20185;-70
2022/01/18 07:22:42;;;;;;;30.77;8.73;;;;;;;5.21;100.00;103308.66;5113901;28;20181;-70
2022/01/18 07:25:15;;;;;;;20.07;8.80;;;;;;;5.25;100.00;103306.19;5114218;28;20189;-70
2022/01/18 07:27:41;;;;;;;18.30;9.00;;;;;;;5.33;100.00;103308.06;5113503;28;20213;-70
2022/01/18 07:30:08;;;;;;;22.00;8.20;;;;;;;5.30;100.00;103315.81;5113600;28;20243;-70
2022/01/18 07:32:35;;;;;;;24.67;8.70;;;;;;;5.33;100.00;103321.06;5078602;28;20254;-70
2022/01/18 07:35:03;;;;;;;28.07;9.00;;;;;;;5.23;100.00;103320.88;5113807;28;20185;-70
2022/01/18 07:37:29;;;;;;;27.43;9.33;;;;;;;5.30;100.00;103327.09;5113695;28;20296;-71
2022/01/18 07:39:55;;;;;;;31.10;9.93;;;;;;;5.24;100.00;103329.53;5113828;28;20186;-70
2022/01/18 07:42:23;;;;;;;25.37;9.13;;;;;;;5.33;100.00;103332.34;5113520;28;20209;-70
2022/01/18 07:44:50;;;;;;;29.03;9.83;;;;;;;5.34;100.00;103333.22;5114062;28;20185;-70
2022/01/18 07:47:17;;;;;;;19.23;9.67;;;;;;;5.25;100.00;103331.28;5113538;28;20209;-71
2022/01/18 07:49:45;;;;;;;21.90;9.37;;;;;;;5.30;100.00;103334.88;5113535;28;20268;-70
2022/01/18 07:52:12;;;;;;;30.00;10.30;;;;;;;5.31;100.00;103335.75;5113494;28;20238;-70
2022/01/18 07:54:38;;;;;;;34.33;10.43;;;;;;;5.32;100.00;103329.72;5113419;28;20234;-70
2022/01/18 07:57:12;;;;;;;15.00;9.20;;;;;;;5.36;100.00;103335.03;5113332;28;20205;-71
2022/01/18 07:59:38;;;;;;;34.13;9.53;;;;;;;5.38;100.00;103337.66;5113597;28;20299;-71
2022/01/18 08:02:05;;;;;;;16.53;8.97;;;;;;;5.41;100.00;103343.78;5113318;28;20209;-71
2022/01/18 08:04:32;;;;;;;12.03;9.17;;;;;;;5.51;100.00;103350.94;5113407;28;20244;-71
2022/01/18 08:06:58;;;;;;;26.67;9.33;;;;;;;5.43;100.00;103344.69;5113197;28;20251;-71
2022/01/18 08:09:24;;;;;;;26.60;8.97;;;;;;;5.47;100.00;103340.44;5113858;28;20246;-71
2022/01/18 08:11:52;;;;;;;27.53;9.17;;;;;;;5.51;100.00;103340.56;5113226;28;20177;-71
2022/01/18 08:14:20;;;;;;;20.87;9.43;;;;;;;5.49;100.00;103341.34;5113271;28;20193;-71
2022/01/18 08:17:00;;;;;;;15.67;8.50;;;;;;;5.53;100.00;103343.19;5113657;28;20262;-71
2022/01/18 08:19:31;;;;;;;24.77;9.50;;;;;;;5.52;100.00;103346.63;5116844;28;20178;-71
2022/01/18 08:21:59;;;;;;;19.17;9.10;;;;;;;5.55;100.00;103357.06;5117561;28;20189;-71
2022/01/18 08:24:26;;;;;;;22.90;9.27;;;;;;;5.61;100.00;103353.72;5117361;28;20185;-71
2022/01/18 08:26:53;;;;;;;18.40;8.90;;;;;;;5.58;100.00;103349.34;5117687;28;20213;-71
2022/01/18 08:29:21;;;;;;;22.63;8.43;;;;;;;5.64;100.00;103349.47;5098778;28;20185;-71
2022/01/18 08:32:07;;;;;;;17.90;8.63;;;;;;;5.63;100.00;103346.84;5116921;28;20197;-71
2022/01/18 08:34:33;;;;;;;28.60;9.23;;;;;;;5.70;100.00;103347.00;5116792;28;20190;-71
2022/01/18 08:37:00;;;;;;;21.50;10.43;;;;;;;5.75;100.00;103349.72;5116811;28;20263;-70
2022/01/18 08:39:26;;;;;;;22.00;10.20;;;;;;;5.65;100.00;103345.19;5116750;28;20186;-70
2022/01/18 08:41:53;;;;;;;24.47;10.70;;;;;;;5.73;100.00;103344.50;5117156;28;20213;-70
2022/01/18 08:44:19;;;;;;;22.73;9.37;;;;;;;5.83;100.00;103342.94;5116883;28;20648;-70
2022/01/18 08:46:46;;;;;;;21.87;9.70;;;;;;;5.79;100.00;103354.16;5116708;28;20271;-71
2022/01/18 08:49:12;;;;;;;33.63;11.30;;;;;;;5.78;100.00;103358.44;5117030;28;20531;-71
2022/01/18 08:51:39;;;;;;;34.97;10.50;;;;;;;5.85;100.00;103359.44;5116424;28;20268;-71
2022/01/18 08:54:06;;;;;;;34.00;10.60;;;;;;;5.91;100.00;103358.72;5116391;28;20231;-71
2022/01/18 08:56:32;;;;;;;21.80;11.00;;;;;;;5.92;100.00;103350.97;5116329;28;20321;-71
2022/01/18 08:59:19;;;;;;;18.20;9.70;;;;;;;5.97;100.00;103356.25;5101566;28;20636;-71
2022/01/18 09:01:45;;;;;;;32.47;10.30;;;;;;;5.93;100.00;103364.84;5116199;28;20678;-70
2022/01/18 09:04:11;;;;;;;27.77;11.80;;;;;;;5.88;100.00;103361.25;5116235;28;20245;-70
2022/01/18 09:06:38;;;;;;;31.83;10.27;;;;;;;5.89;100.00;103366.47;5116589;28;20201;-71
2022/01/18 09:09:06;;;;;;;26.20;10.47;;;;;;;5.93;100.00;103364.84;5116419;28;20242;-70
2022/01/18 09:11:32;;;;;;;28.40;9.90;;;;;;;5.91;100.00;103366.53;5116103;28;20214;-70
2022/01/18 09:13:58;;;;;;;39.00;10.93;;;;;;;5.95;100.00;103370.97;5116246;28;20241;-70
2022/01/18 09:16:25;;;;;;;35.67;11.67;;;;;;;5.98;100.00;103364.09;5115844;28;20278;-71
2022/01/18 09:18:52;;;;;;;36.17;11.23;;;;;;;5.96;100.00;103367.50;5115979;28;20242;-70
2022/01/18 09:21:18;;;;;;;29.37;10.97;;;;;;;6.02;100.00;103367.66;5115918;28;20259;-70
2022/01/18 09:23:45;;;;;;;30.70;10.50;;;;;;;6.12;100.00;103371.28;5115819;28;20189;-70
2022/01/18 09:26:13;;;;;;;30.37;10.47;;;;;;;6.13;100.00;103373.03;5115629;28;20724;-71
2022/01/18 09:28:40;;;;;;;27.20;11.60;;;;;;;6.30;100.00;103377.75;5115706;28;20215;-71
2022/01/18 09:31:07;;;;;;;19.57;10.83;;;;;;;6.28;99.95;103379.41;5115765;28;20188;-71
2022/01/18 09:33:34;;;;;;;30.27;11.67;;;;;;;6.32;99.76;103373.44;5115704;28;20595;-71
2022/01/18 09:36:00;;;;;;;44.00;11.37;;;;;;;6.46;99.49;103380.63;5115512;28;20178;-71
2022/01/18 09:38:27;;;;;;;39.67;10.73;;;;;;;6.48;99.74;103376.31;5115592;28;20195;-70
2022/01/18 09:40:54;;;;;;;31.17;12.83;;;;;;;6.48;99.19;103382.41;5115397;28;20181;-70
2022/01/18 09:43:20;;;;;;;33.70;11.90;;;;;;;6.48;99.35;103389.34;5115430;28;20185;-70
2022/01/18 09:45:47;;;;;;;29.30;10.80;;;;;;;6.53;98.98;103387.72;5115377;28;20190;-71
2022/01/18 09:48:14;;;;;;;31.83;10.70;;;;;;;6.57;98.77;103386.91;5115295;28;20209;-70
2022/01/18 09:50:43;;;;;;;31.67;10.80;;;;;;;6.60;99.14;103394.78;5115358;28;20238;-70
2022/01/18 09:53:11;;;;;;;26.60;11.10;;;;;;;6.63;98.77;103397.44;5115313;28;20258;-70
2022/01/18 09:55:40;;;;;;;37.97;11.87;;;;;;;6.63;98.66;103398.31;5115770;28;20670;-70
2022/01/18 09:58:07;;;;;;;21.87;11.13;;;;;;;6.67;97.95;103401.84;5115186;28;20287;-70
2022/01/18 10:00:38;;;;;;;29.57;10.53;;;;;;;6.71;97.59;103402.78;5115708;28;20190;-70
2022/01/18 10:03:26;;;;;;;30.67;10.83;;;;;;;6.60;97.60;103394.78;5115322;28;20193;-70
2022/01/18 10:05:53;;;;;;;29.77;11.90;;;;;;;6.56;97.86;103400.75;5115344;28;20180;-70
2022/01/18 10:08:20;;;;;;;26.07;9.93;;;;;;;6.57;98.11;103395.63;5114798;28;20204;-70
2022/01/18 10:10:53;;;;;;;24.23;10.80;;;;;;;6.64;97.95;103393.97;5114963;28;20182;-70
2022/01/18 10:13:21;;;;;;;18.17;11.00;;;;;;;6.67;97.86;103386.22;5115478;28;20188;-70
2022/01/18 10:15:57;;;;;;;25.33;10.27;;;;;;;6.76;98.07;103383.78;5114730;28;20234;-70
2022/01/18 10:18:37;;;;;;;27.40;9.90;;;;;;;6.71;97.65;103385.41;5114719;28;20253;-70
2022/01/18 10:21:06;;;;;;;22.63;8.80;;;;;;;6.82;96.71;103383.91;5114669;28;20537;-70
2022/01/18 10:23:34;;;;;;;28.13;9.07;;;;;;;6.87;96.74;103387.47;5114763;28;20188;-70
2022/01/18 10:26:19;;;;;;;18.37;9.03;;;;;;;6.92;97.29;103382.31;5114827;28;20192;-71
2022/01/18 10:28:46;;;;;;;21.67;9.23;;;;;;;7.07;97.08;103386.91;5114819;28;20165;-70
2022/01/18 10:31:28;;;;;;;17.53;8.33;;;;;;;7.17;96.38;103381.88;5114900;28;20230;-70
2022/01/18 10:34:20;;;;;;;21.30;9.70;;;;;;;7.21;96.14;103377.56;5114489;28;20200;-70
2022/01/18 10:37:08;;;;;;;27.30;10.43;;;;;;;7.14;95.50;103384.44;5114561;28;20213;-71
2022/01/18 10:39:43;;;;;;;16.57;10.33;;;;;;;7.20;95.34;103378.44;5114929;28;20608;-71
2022/01/18 10:42:14;;;;;;;23.40;11.60;;;;;;;7.34;95.19;103376.91;5114100;28;20197;-70
2022/01/18 10:44:42;;;;;;;27.73;10.33;;;;;;;7.38;95.01;103372.63;5114891;28;20234;-70
2022/01/18 10:47:09;;;;;;;33.03;11.53;;;;;;;7.31;94.09;103376.88;5114308;28;20233;-71
2022/01/18 10:49:45;;;;;;;26.90;12.87;;;;;;;7.34;94.19;103376.03;5114734;28;20190;-70
2022/01/18 10:52:20;;;;;;;31.07;13.07;;;;;;;7.12;94.38;103382.66;5114472;28;20611;-70
2022/01/18 10:54:49;;;;;;;50.17;17.13;;;;;;;7.24;93.74;103368.94;5114512;28;20173;-70
2022/01/18 10:57:27;;;;;;;40.77;16.77;;;;;;;7.20;93.74;103362.78;5114144;28;20205;-70
2022/01/18 11:00:10;;;;;;;39.90;16.30;;;;;;;7.22;93.79;103363.72;5114112;28;20222;-70
2022/01/18 11:02:39;;;;;;;46.60;16.47;;;;;;;7.28;93.88;103365.50;5114383;28;20245;-70
2022/01/18 11:05:12;;;;;;;27.57;15.93;;;;;;;7.08;94.12;103362.63;5113981;28;20205;-70
2022/01/18 11:07:39;;;;;;;45.10;16.30;;;;;;;7.18;93.94;103356.69;5113899;28;20235;-71
2022/01/18 11:10:08;;;;;;;34.30;17.33;;;;;;;7.20;94.05;103359.31;5113906;28;20246;-70
2022/01/18 11:12:54;;;;;;;31.30;15.87;;;;;;;7.22;94.19;103355.03;5114150;28;20185;-70
2022/01/18 11:15:22;;;;;;;34.47;15.43;;;;;;;7.21;94.07;103348.91;5114420;28;20188;-70
2022/01/18 11:17:56;;;;;;;43.13;15.27;;;;;;;7.25;93.93;103350.72;5114019;28;20209;-71
2022/01/18 11:20:24;;;;;;;41.50;13.70;;;;;;;7.23;94.14;103349.84;5113925;28;20201;-70
2022/01/18 11:22:51;;;;;;;27.33;13.93;;;;;;;7.21;93.74;103345.44;5113695;28;20201;-70
2022/01/18 11:25:18;;;;;;;36.00;13.63;;;;;;;7.25;93.74;103340.28;5113605;28;20655;-70
2022/01/18 11:27:49;;;;;;;40.20;14.80;;;;;;;7.22;93.53;103348.09;5113619;28;20220;-70
2022/01/18 11:30:18;;;;;;;36.57;16.67;;;;;;;7.15;93.64;103346.25;5113751;28;20177;-70
2022/01/18 11:32:45;;;;;;;37.27;16.07;;;;;;;7.20;93.43;103349.75;5113684;28;20185;-70
2022/01/18 11:35:21;;;;;;;46.67;17.27;;;;;;;7.15;93.98;103347.13;5095608;28;20193;-70
2022/01/18 11:38:26;;;;;;;30.27;16.43;;;;;;;7.24;93.88;103341.16;5113918;28;20257;-71
2022/01/18 11:40:56;;;;;;;31.70;15.93;;;;;;;7.25;93.61;103335.09;5058383;28;20197;-70
2022/01/18 11:43:42;;;;;;;40.47;14.80;;;;;;;7.30;93.51;103341.25;5116111;28;20608;-70
2022/01/18 11:46:35;;;;;;;24.53;13.00;;;;;;;7.36;93.70;103330.91;5113446;28;20177;-71
2022/01/18 11:49:04;;;;;;;32.40;14.70;;;;;;;7.39;93.26;103335.28;5095179;28;20669;-70
2022/01/18 11:51:59;;;;;;;19.73;12.33;;;;;;;7.39;92.71;103330.94;5113923;28;20196;-70
2022/01/18 11:57:20;;;;;;;32.37;16.60;;;;;;;7.41;92.03;103329.22;5117621;28;20212;-71
2022/01/18 11:59:49;;;;;;;42.83;18.47;;;;;;;7.40;90.91;103326.59;5117880;28;20239;-70
2022/01/18 12:02:40;;;;;;;38.43;17.03;;;;;;;7.27;91.47;103328.16;5118918;28;20236;-70
2022/01/18 12:05:14;;;;;;;44.00;17.67;;;;;;;7.34;92.06;103326.53;5099658;28;20195;-70
2022/01/18 12:07:42;;;;;;;43.63;15.67;;;;;;;7.47;91.70;103320.63;5117236;28;20205;-71
2022/01/18 12:10:27;;;;;;;22.10;11.47;;;;;;;7.45;91.30;103320.63;5117280;28;20238;-70
2022/01/18 12:12:55;;;;;;;15.03;9.07;;;;;;;7.50;90.43;103327.59;5099087;28;20181;-70
2022/01/18 12:15:26;;;;;;;23.50;9.63;;;;;;;7.50;90.66;103330.19;5117752;28;20616;-70
2022/01/18 12:17:55;;;;;;;14.60;6.97;;;;;;;7.49;90.31;103321.50;5117217;28;20212;-71
2022/01/18 12:20:43;;;;;;;15.87;6.67;;;;;;;7.44;90.42;103324.06;5117210;28;20242;-70
2022/01/18 12:23:25;;;;;;;16.63;7.03;;;;;;;7.59;90.38;103322.53;5116977;28;20196;-70
2022/01/18 12:26:11;;;;;;;9.80;5.73;;;;;;;7.48;89.76;103313.69;5117520;28;20177;-70
2022/01/18 12:37:06;;;;;;;15.10;6.60;;;;;;;7.57;89.74;103298.16;5116609;28;20262;-70
2022/01/18 12:39:51;;;;;;;10.77;7.43;;;;;;;7.69;89.92;103298.31;5116964;28;20196;-70
2022/01/18 12:44:59;;;;;;;13.87;5.33;;;;;;;7.63;90.17;103293.00;5116652;28;20201;-70
2022/01/18 12:47:25;;;;;;;15.23;5.77;;;;;;;7.66;90.16;103299.16;5117129;28;20250;-70
2022/01/18 12:49:52;;;;;;;16.63;6.00;;;;;;;7.84;89.34;103293.28;5116590;28;20572;-70
2022/01/18 12:52:19;;;;;;;13.47;7.00;;;;;;;7.81;89.41;103295.84;5116637;28;20246;-70
2022/01/18 12:54:48;;;;;;;23.60;7.40;;;;;;;7.75;89.56;103295.78;5116384;28;20185;-70